Time;durP1;ratioP1;P1;durP2;ratioP2;P2;SDS_P1;SDS_P2;PMS_P1;PMS_P2;Temp;Humidity;BMP_temperature;BMP_pressure;BME280_temperature;BME280_humidity;BME280_pressure;Samples;Min_cycle;Max_cycle;Signal;HPM_P1;HPM_P2
2022/11/12 00:00:12;;;;;;;0.00;0.00;;;;;;;18.32;67.72;103240.53;2092782;28;20188;-70
2022/11/12 00:01:33;;;;;;;0.00;0.00;;;;;;;18.33;67.67;103231.19;2091960;28;20410;-70
2022/11/12 00:02:54;;;;;;;0.00;0.00;;;;;;;18.33;67.44;103223.78;2092119;28;20082;-70
2022/11/12 00:04:16;;;;;;;0.00;0.00;;;;;;;18.35;67.56;103223.44;2095067;28;20517;-70
2022/11/12 00:05:37;;;;;;;0.00;0.00;;;;;;;18.35;67.48;103224.25;2094607;28;20107;-70
2022/11/12 00:06:58;;;;;;;0.00;0.00;;;;;;;18.35;67.53;103229.72;2092875;28;20044;-67
2022/11/12 00:08:19;;;;;;;0.00;0.00;;;;;;;18.38;67.64;103245.50;2093920;28;20079;-70
2022/11/12 00:09:40;;;;;;;0.00;0.00;;;;;;;18.38;67.50;103239.22;2092435;28;20135;-70
2022/11/12 00:11:03;;;;;;;0.00;0.00;;;;;;;18.38;67.68;103234.53;2090699;28;20056;-70
2022/11/12 00:12:25;;;;;;;0.00;0.00;;;;;;;18.40;67.70;103235.03;2093929;28;20052;-70
2022/11/12 00:13:46;;;;;;;0.00;0.00;;;;;;;18.42;67.37;103240.16;2093959;28;20160;-70
2022/11/12 00:15:07;;;;;;;0.00;0.00;;;;;;;18.43;67.57;103245.28;2092899;28;20048;-70
2022/11/12 00:16:29;;;;;;;0.00;0.00;;;;;;;18.43;67.47;103248.03;2092512;28;21577;-71
2022/11/12 00:17:49;;;;;;;0.00;0.00;;;;;;;18.43;67.50;103242.56;2090791;28;20045;-69
2022/11/12 00:19:11;;;;;;;0.00;0.00;;;;;;;18.44;67.38;103244.13;2093969;28;20059;-71
2022/11/12 00:20:34;;;;;;;0.00;0.00;;;;;;;18.43;67.31;103228.88;2094045;28;20082;-68
2022/11/12 00:21:55;;;;;;;0.00;0.00;;;;;;;18.46;67.54;103236.41;2091985;28;20059;-71
2022/11/12 00:23:16;;;;;;;0.00;0.00;;;;;;;18.47;67.28;103237.22;2093438;28;20079;-71
2022/11/12 00:24:37;;;;;;;0.00;0.00;;;;;;;18.46;67.53;103230.94;2092011;28;20140;-71
2022/11/12 00:25:59;;;;;;;0.00;0.00;;;;;;;18.46;67.26;103236.41;2093429;28;20101;-70
2022/11/12 00:27:20;;;;;;;0.00;0.00;;;;;;;18.47;67.35;103232.53;2094884;28;20324;-71
2022/11/12 00:28:40;;;;;;;0.00;0.00;;;;;;;18.48;67.24;103244.28;2094992;28;20464;-69
2022/11/12 00:30:02;;;;;;;;;;;;;;;18.29;67.68;103244.75;2094197;28;20051;-71
2022/11/12 00:31:23;;;;;;;0.00;0.00;;;;;;;18.41;67.69;103249.50;2094649;28;19924;-69
2022/11/12 00:32:43;;;;;;;0.00;0.00;;;;;;;18.46;67.64;103249.28;2093724;28;20063;-70
2022/11/12 00:34:05;;;;;;;0.00;0.00;;;;;;;18.48;67.29;103257.97;2092601;28;20086;-70
2022/11/12 00:35:25;;;;;;;0.00;0.00;;;;;;;18.48;67.19;103249.75;2091866;28;20077;-71
2022/11/12 00:36:48;;;;;;;;;;;;;;;18.30;67.72;103240.84;2093349;28;20047;-71
2022/11/12 00:38:08;;;;;;;0.00;0.00;;;;;;;18.39;67.71;103236.16;2093730;28;19982;-71
2022/11/12 00:39:29;;;;;;;0.00;0.00;;;;;;;18.44;67.34;103241.41;2091653;28;20053;-71
2022/11/12 00:40:50;;;;;;;0.00;0.00;;;;;;;18.47;67.33;103238.00;2093822;28;20625;-70
2022/11/12 00:42:11;;;;;;;0.00;0.00;;;;;;;18.48;67.27;103236.06;2093595;28;20474;-70
2022/11/12 00:43:32;;;;;;;0.00;0.00;;;;;;;18.48;67.48;103234.13;2090366;28;20106;-70
2022/11/12 00:44:53;;;;;;;0.00;0.00;;;;;;;18.50;67.11;103248.28;2091340;28;20067;-70
2022/11/12 00:46:14;;;;;;;0.00;0.00;;;;;;;18.50;67.33;103231.06;2091888;28;20098;-68
2022/11/12 00:47:35;;;;;;;0.00;0.00;;;;;;;18.50;67.44;103242.00;2092678;28;20149;-70
2022/11/12 00:48:56;;;;;;;;;;;;;;;18.32;67.71;103240.53;2085854;28;20111;-70
2022/11/12 00:50:16;;;;;;;0.00;0.00;;;;;;;18.45;67.53;103251.22;2088679;28;19927;-70
2022/11/12 00:51:38;;;;;;;0.00;0.00;;;;;;;18.48;67.28;103250.56;2093323;28;20055;-70
2022/11/12 00:53:01;;;;;;;0.00;0.00;;;;;;;18.51;67.50;103251.81;2095333;28;20519;-70
2022/11/12 00:54:21;;;;;;;0.00;0.00;;;;;;;18.51;67.38;103249.88;2091114;28;20092;-70
2022/11/12 00:55:42;;;;;;;0.00;0.00;;;;;;;18.50;67.27;103242.81;2090963;28;20055;-69
2022/11/12 00:57:04;;;;;;;0.00;0.00;;;;;;;18.51;67.29;103238.94;2095021;28;20052;-70
2022/11/12 00:58:26;;;;;;;0.00;0.00;;;;;;;18.53;67.32;103235.88;2085692;28;20053;-69
2022/11/12 00:59:48;;;;;;;0.00;0.00;;;;;;;18.53;67.17;103233.13;2084936;28;20536;-70
2022/11/12 01:01:12;;;;;;;0.00;0.00;;;;;;;18.55;67.25;103239.06;2082549;28;20622;-70
2022/11/12 01:02:32;;;;;;;0.00;0.00;;;;;;;18.53;67.32;103239.41;2082189;28;20063;-70
2022/11/12 01:04:02;;;;;;;0.00;0.00;;;;;;;18.51;67.42;103238.94;2083937;28;20045;-71
2022/11/12 01:05:22;;;;;;;0.00;0.00;;;;;;;18.53;67.07;103244.88;2083489;28;20044;-70
2022/11/12 01:06:44;;;;;;;0.00;0.00;;;;;;;18.51;67.22;103241.69;2084281;28;20052;-70
2022/11/12 01:08:05;;;;;;;0.00;0.00;;;;;;;18.52;67.12;103246.00;2083767;28;20110;-71
2022/11/12 01:09:26;;;;;;;0.00;0.00;;;;;;;18.51;67.14;103249.06;2083633;28;20063;-70
2022/11/12 01:10:47;;;;;;;0.00;0.00;;;;;;;18.49;67.29;103252.16;2083345;28;20045;-70
2022/11/12 01:12:08;;;;;;;;;;;;;;;18.28;67.65;103240.41;2078755;28;20057;-70
2022/11/12 01:13:28;;;;;;;0.00;0.00;;;;;;;18.39;67.57;103241.63;2079704;28;19921;-71
2022/11/12 01:14:49;;;;;;;0.00;0.00;;;;;;;18.41;67.37;103242.09;2084904;28;20102;-71
2022/11/12 01:16:12;;;;;;;0.00;0.00;;;;;;;18.42;67.54;103238.22;2086059;28;20056;-70
2022/11/12 01:17:33;;;;;;;0.00;0.00;;;;;;;18.40;67.33;103247.88;2083664;28;20092;-71
2022/11/12 01:18:57;;;;;;;0.00;0.00;;;;;;;18.39;67.34;103252.56;2083555;28;20069;-70
2022/11/12 01:20:17;;;;;;;0.00;0.00;;;;;;;18.36;67.44;103242.25;2081907;28;20932;-70
2022/11/12 01:21:41;;;;;;;0.00;0.00;;;;;;;18.35;67.44;103246.13;2083097;28;20103;-70
2022/11/12 01:23:01;;;;;;;0.00;0.00;;;;;;;18.32;67.47;103241.34;2082996;28;20053;-70
2022/11/12 01:24:24;;;;;;;0.00;0.00;;;;;;;18.32;67.71;103246.81;2083322;28;20088;-69
2022/11/12 01:25:44;;;;;;;0.00;0.00;;;;;;;18.30;67.73;103238.13;2082670;28;20076;-71
2022/11/12 01:27:05;;;;;;;0.00;0.00;;;;;;;18.27;67.50;103244.25;2082881;28;20052;-71
2022/11/12 01:28:28;;;;;;;0.00;0.00;;;;;;;18.29;67.45;103249.41;2082600;28;20049;-70
2022/11/12 01:29:49;;;;;;;0.00;0.00;;;;;;;18.27;67.45;103254.38;2079959;28;20130;-70
2022/11/12 01:31:12;;;;;;;0.00;0.00;;;;;;;18.26;67.28;103256.34;2082942;28;20048;-70
2022/11/12 01:32:36;;;;;;;0.00;0.00;;;;;;;18.24;67.68;103255.88;2084676;28;20141;-68
2022/11/12 01:33:59;;;;;;;0.00;0.00;;;;;;;18.22;67.54;103247.19;2083751;28;20057;-71
2022/11/12 01:35:20;;;;;;;0.00;0.00;;;;;;;18.21;67.55;103240.13;2082065;28;20067;-71
2022/11/12 01:36:42;;;;;;;0.00;0.00;;;;;;;18.19;67.68;103245.13;2084732;28;20067;-69
2022/11/12 01:38:02;;;;;;;0.00;0.00;;;;;;;18.19;67.49;103236.94;2083341;28;20049;-69
2022/11/12 01:39:25;;;;;;;0.00;0.00;;;;;;;18.19;67.74;103247.09;2081262;28;20168;-71
2022/11/12 01:40:45;;;;;;;0.00;0.00;;;;;;;18.16;67.84;103248.53;2083543;28;20075;-71
2022/11/12 01:42:06;;;;;;;0.00;0.00;;;;;;;18.13;67.76;103249.19;2082353;28;20080;-71
2022/11/12 01:43:27;;;;;;;0.00;0.00;;;;;;;18.15;67.67;103248.88;2082259;28;20266;-71
2022/11/12 01:44:48;;;;;;;;;;;;;;;17.94;67.92;103254.31;2081910;28;20172;-72
2022/11/12 01:46:15;;;;;;;0.00;0.00;;;;;;;18.05;67.70;103244.59;2084922;28;20386;-71
2022/11/12 01:47:36;;;;;;;0.00;0.00;;;;;;;18.07;67.86;103234.13;2082291;28;20077;-70
2022/11/12 01:49:01;;;;;;;0.00;0.00;;;;;;;18.08;67.75;103230.25;2080256;28;20060;-71
2022/11/12 01:50:27;;;;;;;0.00;0.00;;;;;;;18.07;67.91;103233.31;2083663;28;20096;-71
2022/11/12 01:51:52;;;;;;;0.00;0.00;;;;;;;18.08;67.75;103221.25;2081866;28;20124;-71
2022/11/12 01:53:14;;;;;;;0.00;0.00;;;;;;;18.06;67.94;103226.28;2082874;28;20449;-70
2022/11/12 01:54:36;;;;;;;0.00;0.00;;;;;;;18.07;67.72;103228.66;2082962;28;20471;-70
2022/11/12 01:55:59;;;;;;;0.00;0.00;;;;;;;18.05;67.74;103230.94;2085660;28;20460;-71
2022/11/12 01:57:24;;;;;;;0.00;0.00;;;;;;;18.03;67.77;103230.44;2085848;28;20119;-71
2022/11/12 01:58:56;;;;;;;0.00;0.00;;;;;;;18.03;67.94;103238.66;2092237;28;20059;-71
2022/11/12 02:00:18;;;;;;;0.00;0.00;;;;;;;18.02;68.05;103237.06;2092551;28;20839;-71
2022/11/12 02:01:38;;;;;;;0.00;0.00;;;;;;;18.03;67.98;103240.59;2092043;28;20504;-71
2022/11/12 02:03:02;;;;;;;0.00;0.00;;;;;;;18.02;67.91;103230.78;2093070;28;20051;-71
2022/11/12 02:04:25;;;;;;;0.00;0.00;;;;;;;18.02;67.93;103233.53;2093150;28;20118;-71
2022/11/12 02:05:48;;;;;;;0.00;0.00;;;;;;;18.02;67.87;103231.59;2092708;28;20628;-71
2022/11/12 02:07:10;;;;;;;0.00;0.00;;;;;;;17.98;67.94;103219.75;2092427;28;20108;-71
2022/11/12 02:08:33;;;;;;;0.00;0.00;;;;;;;18.00;67.94;103233.84;2092050;28;20109;-71
2022/11/12 02:09:54;;;;;;;0.00;0.00;;;;;;;18.00;68.13;103233.84;2093710;28;20048;-70
2022/11/12 02:11:17;;;;;;;0.00;0.00;;;;;;;17.99;68.06;103236.91;2093057;28;20051;-71
2022/11/12 02:14:17;;;;;;;0.00;0.00;;;;;;;17.96;68.07;103243.06;2092101;28;20064;-70
2022/11/12 02:15:40;;;;;;;0.00;0.00;;;;;;;17.96;68.09;103241.13;2090989;28;20393;-71
2022/11/12 02:17:01;;;;;;;0.00;0.00;;;;;;;17.95;67.97;103236.78;2093811;28;20079;-70
2022/11/12 02:18:22;;;;;;;0.00;0.00;;;;;;;17.96;67.77;103232.13;2093394;28;20040;-70
2022/11/12 02:19:43;;;;;;;0.00;0.00;;;;;;;17.96;68.01;103235.66;2092848;28;20107;-70
2022/11/12 02:21:08;;;;;;;0.00;0.00;;;;;;;17.95;67.92;103225.84;2093207;28;20136;-71
2022/11/12 02:22:30;;;;;;;0.00;0.00;;;;;;;17.95;68.07;103231.31;2094327;28;20059;-70
2022/11/12 02:23:58;;;;;;;0.00;0.00;;;;;;;17.92;67.95;103237.44;2091307;28;20052;-70
2022/11/12 02:25:24;;;;;;;0.00;0.00;;;;;;;17.93;67.99;103228.91;2093566;28;20059;-70
2022/11/12 02:26:50;;;;;;;0.00;0.00;;;;;;;17.93;68.18;103228.91;2092487;28;20389;-70
2022/11/12 02:28:10;;;;;;;0.00;0.00;;;;;;;17.92;68.00;103228.47;2091784;28;20044;-69
2022/11/12 02:29:32;;;;;;;0.00;0.00;;;;;;;17.92;67.86;103223.00;2094925;28;20056;-69
2022/11/12 02:30:53;;;;;;;0.00;0.00;;;;;;;17.89;67.88;103222.53;2093840;28;20052;-68
2022/11/12 02:32:14;;;;;;;0.00;0.00;;;;;;;17.90;68.04;103229.56;2093954;28;20389;-70
2022/11/12 02:33:34;;;;;;;0.00;0.00;;;;;;;17.92;68.09;103225.72;2093428;28;20056;-71
2022/11/12 02:34:55;;;;;;;0.00;0.00;;;;;;;17.90;68.27;103235.03;2090006;28;20549;-70
2022/11/12 02:36:16;;;;;;;0.00;0.00;;;;;;;17.90;68.26;103235.03;2093430;28;20144;-71
2022/11/12 02:37:38;;;;;;;;;;;;;;;17.71;68.17;103236.63;2093284;28;20563;-70
2022/11/12 02:38:59;;;;;;;0.00;0.00;;;;;;;17.82;68.09;103240.59;2092002;28;19928;-70
2022/11/12 02:40:20;;;;;;;0.00;0.00;;;;;;;17.85;67.85;103243.44;2092358;28;20068;-70
2022/11/12 02:41:42;;;;;;;0.00;0.00;;;;;;;17.86;67.97;103238.78;2093073;28;20102;-70
2022/11/12 02:43:03;;;;;;;0.00;0.00;;;;;;;17.87;68.20;103245.84;2092480;28;20073;-71
2022/11/12 02:44:25;;;;;;;0.00;0.00;;;;;;;17.87;68.08;103245.84;2093956;28;20052;-70
2022/11/12 02:45:45;;;;;;;0.00;0.00;;;;;;;17.85;68.23;103243.44;2091560;28;20047;-70
2022/11/12 02:47:06;;;;;;;0.00;0.00;;;;;;;17.86;67.97;103249.72;2084833;28;20442;-70
2022/11/12 02:48:27;;;;;;;0.00;0.00;;;;;;;17.86;67.89;103255.19;2092551;28;20538;-71
2022/11/12 02:49:49;;;;;;;0.00;0.00;;;;;;;17.86;68.00;103260.63;2092384;28;20078;-70
2022/11/12 02:51:09;;;;;;;0.00;0.00;;;;;;;17.85;68.12;103264.50;2092103;28;20056;-69
2022/11/12 02:52:31;;;;;;;0.00;0.00;;;;;;;17.85;67.99;103262.56;2093899;28;20414;-71
2022/11/12 02:53:52;;;;;;;0.00;0.00;;;;;;;17.85;67.90;103267.25;2093938;28;20052;-69
2022/11/12 02:55:13;;;;;;;0.00;0.00;;;;;;;17.84;68.05;103269.16;2091922;28;20661;-70
2022/11/12 02:56:35;;;;;;;0.00;0.00;;;;;;;17.84;68.13;103266.44;2092222;28;20055;-71
2022/11/12 02:57:56;;;;;;;0.00;0.00;;;;;;;17.83;67.91;103256.66;2085390;28;20830;-69
2022/11/12 02:59:17;;;;;;;0.00;0.00;;;;;;;17.84;68.01;103251.97;2082699;28;20413;-70
2022/11/12 03:00:38;;;;;;;0.00;0.00;;;;;;;17.84;67.90;103241.03;2083008;28;20061;-69
2022/11/12 03:01:59;;;;;;;0.00;0.00;;;;;;;17.82;68.01;103243.31;2077093;28;20562;-71
2022/11/12 03:03:19;;;;;;;0.00;0.00;;;;;;;17.81;67.83;103242.50;2083373;28;20107;-71
2022/11/12 03:04:41;;;;;;;0.00;0.00;;;;;;;17.83;67.89;103247.63;2084595;28;20061;-71
2022/11/12 03:06:08;;;;;;;0.00;0.00;;;;;;;17.81;68.08;103247.16;2084884;28;20049;-71
2022/11/12 03:07:29;;;;;;;0.00;0.00;;;;;;;17.80;67.90;103251.84;2083118;28;20045;-71
2022/11/12 03:08:51;;;;;;;0.00;0.00;;;;;;;17.81;68.01;103250.72;2084269;28;20096;-70
2022/11/12 03:10:13;;;;;;;0.00;0.00;;;;;;;17.82;67.82;103256.97;2084080;28;20080;-71
2022/11/12 03:11:34;;;;;;;0.00;0.00;;;;;;;17.81;67.99;103241.69;2084197;28;20061;-71
2022/11/12 03:12:56;;;;;;;0.00;0.00;;;;;;;17.81;67.76;103247.97;2084464;28;20049;-69
2022/11/12 03:14:18;;;;;;;0.00;0.00;;;;;;;17.80;67.96;103234.63;2080348;28;20404;-71
2022/11/12 03:15:38;;;;;;;0.00;0.00;;;;;;;17.80;67.81;103229.19;2083845;28;20068;-70
2022/11/12 03:17:00;;;;;;;;;;;;;;;17.60;68.00;103235.41;2077310;28;20133;-71
2022/11/12 03:18:20;;;;;;;0.00;0.00;;;;;;;17.72;68.04;103230.84;2083772;28;20372;-71
2022/11/12 03:19:41;;;;;;;0.00;0.00;;;;;;;17.74;67.76;103233.25;2083684;28;20053;-71
2022/11/12 03:21:01;;;;;;;0.00;0.00;;;;;;;17.76;67.97;103250.09;2082909;28;20088;-70
2022/11/12 03:22:22;;;;;;;;;;;;;;;17.57;68.30;103247.78;2084199;28;20060;-71
2022/11/12 03:23:43;;;;;;;0.00;0.00;;;;;;;17.68;67.90;103253.66;2083903;28;20006;-71
2022/11/12 03:25:05;;;;;;;0.00;0.00;;;;;;;17.72;67.83;103266.38;2083126;28;20055;-63
2022/11/12 03:26:28;;;;;;;0.00;0.00;;;;;;;17.73;67.77;103256.22;2084235;28;20394;-63
2022/11/12 03:27:59;;;;;;;0.00;0.00;;;;;;;17.71;68.03;103253.03;2084705;28;20064;-63
2022/11/12 03:29:20;;;;;;;0.00;0.00;;;;;;;17.72;67.95;103249.16;2077623;28;20041;-62
2022/11/12 03:30:43;;;;;;;0.00;0.00;;;;;;;17.73;67.94;103237.88;2080232;28;20783;-62
2022/11/12 03:32:04;;;;;;;0.00;0.00;;;;;;;17.73;67.73;103240.63;2083226;28;20107;-62
2022/11/12 03:33:25;;;;;;;0.00;0.00;;;;;;;17.74;67.92;103241.44;2087271;28;20394;-63
2022/11/12 03:34:46;;;;;;;0.00;0.00;;;;;;;17.74;68.01;103244.16;2085688;28;20044;-62
2022/11/12 03:36:13;;;;;;;0.00;0.00;;;;;;;17.73;67.81;103253.47;2085246;28;20433;-63
2022/11/12 03:37:33;;;;;;;0.00;0.00;;;;;;;17.73;67.70;103261.69;2086659;28;20053;-63
2022/11/12 03:38:55;;;;;;;0.00;0.00;;;;;;;17.73;67.91;103258.94;2082952;28;20099;-62
2022/11/12 03:40:15;;;;;;;0.00;0.00;;;;;;;17.73;67.98;103256.22;2077995;28;20136;-63
2022/11/12 03:41:38;;;;;;;0.00;0.00;;;;;;;17.74;67.80;103249.63;2083884;28;20173;-62
2022/11/12 03:42:59;;;;;;;0.00;0.00;;;;;;;17.73;67.78;103242.53;2085161;28;20551;-64
2022/11/12 03:44:20;;;;;;;0.00;0.00;;;;;;;17.73;67.69;103245.28;2082915;28;20045;-63
2022/11/12 03:45:40;;;;;;;0.00;0.00;;;;;;;17.74;67.72;103231.28;2086101;28;20122;-65
2022/11/12 03:47:01;;;;;;;0.00;0.00;;;;;;;17.73;68.04;103235.16;2084834;28;20833;-64
2022/11/12 03:48:23;;;;;;;0.00;0.00;;;;;;;17.73;67.74;103234.34;2083123;28;20063;-63
2022/11/12 03:49:44;;;;;;;0.00;0.00;;;;;;;17.73;67.91;103242.53;2083449;28;20137;-63
2022/11/12 03:51:05;;;;;;;;;;;;;;;17.54;68.22;103242.97;2083727;28;20049;-63
2022/11/12 03:52:25;;;;;;;0.00;0.00;;;;;;;17.66;68.20;103250.47;2085831;28;19927;-64
2022/11/12 03:53:47;;;;;;;;;;;;;;;17.49;68.08;103240.44;2084155;28;20052;-63
2022/11/12 03:55:07;;;;;;;0.00;0.00;;;;;;;17.62;68.41;103244.88;2083513;28;20035;-63
2022/11/12 03:56:28;;;;;;;0.00;0.00;;;;;;;17.65;68.04;103241.47;2084179;28;20051;-63
2022/11/12 03:57:52;;;;;;;0.00;0.00;;;;;;;17.68;67.81;103234.53;2090326;28;20496;-62
2022/11/12 03:59:13;;;;;;;0.00;0.00;;;;;;;17.67;67.89;103238.41;2093808;28;20055;-62
2022/11/12 04:00:34;;;;;;;0.00;0.00;;;;;;;17.69;67.85;103238.88;2093860;28;20045;-62
2022/11/12 04:01:55;;;;;;;0.00;0.00;;;;;;;17.69;67.75;103236.16;2094629;28;20123;-62
2022/11/12 04:03:16;;;;;;;;;;;;;;;17.51;68.42;103240.09;2090361;28;20057;-62
2022/11/12 04:09:38;;;;;;;0.00;0.00;;;;;;;17.63;67.99;103240.22;2092764;28;20044;-63
2022/11/12 04:10:59;;;;;;;0.00;0.00;;;;;;;17.64;68.21;103242.63;2094728;28;20518;-64
2022/11/12 04:14:01;;;;;;;0.00;0.00;;;;;;;17.64;68.16;103241.81;2093814;28;20049;-63
2022/11/12 04:15:21;;;;;;;0.00;0.00;;;;;;;17.65;68.44;103248.84;2092181;28;20052;-62
2022/11/12 04:21:50;;;;;;;0.00;0.00;;;;;;;17.63;67.97;103246.47;2089515;28;20127;-62
2022/11/12 04:23:11;;;;;;;0.00;0.00;;;;;;;17.63;68.07;103248.41;2094696;28;20060;-62
2022/11/12 04:26:24;;;;;;;0.00;0.00;;;;;;;17.55;68.30;103243.78;2094091;28;20399;-63
2022/11/12 04:27:44;;;;;;;0.00;0.00;;;;;;;17.58;67.94;103241.19;2094736;28;20075;-63
2022/11/12 04:30:46;;;;;;;0.00;0.00;;;;;;;17.58;67.97;103232.19;2092657;28;20052;-62
2022/11/12 04:32:07;;;;;;;0.00;0.00;;;;;;;17.60;67.90;103232.69;2084212;28;20106;-63
2022/11/12 04:33:28;;;;;;;0.00;0.00;;;;;;;17.61;67.92;103231.53;2087950;28;20595;-63
2022/11/12 04:34:48;;;;;;;0.00;0.00;;;;;;;17.62;68.17;103227.66;2093812;28;20089;-63
2022/11/12 04:36:10;;;;;;;0.00;0.00;;;;;;;17.60;67.95;103228.00;2083964;28;20219;-62
2022/11/12 04:37:43;;;;;;;0.00;0.00;;;;;;;17.62;67.64;103228.47;2080191;28;20068;-63
2022/11/12 04:39:05;;;;;;;0.00;0.00;;;;;;;17.61;67.96;103231.53;2086230;28;20075;-63
2022/11/12 04:45:27;;;;;;;0.00;0.00;;;;;;;17.60;68.09;103227.22;2093017;28;20143;-63
2022/11/12 04:46:47;;;;;;;0.00;0.00;;;;;;;17.60;67.83;103233.47;2094115;28;20145;-64
2022/11/12 04:48:08;;;;;;;0.00;0.00;;;;;;;17.61;68.25;103234.28;2092727;28;20059;-64
2022/11/12 04:49:29;;;;;;;0.00;0.00;;;;;;;17.61;68.31;103224.16;2091523;28;20114;-63
2022/11/12 04:50:54;;;;;;;0.00;0.00;;;;;;;17.62;67.89;103238.59;2092046;28;20135;-63
2022/11/12 04:52:15;;;;;;;0.00;0.00;;;;;;;17.61;67.85;103226.88;2093088;28;20055;-63
2022/11/12 04:53:36;;;;;;;0.00;0.00;;;;;;;17.62;67.74;103227.66;2092753;28;20128;-63
2022/11/12 04:54:57;;;;;;;0.00;0.00;;;;;;;17.62;67.96;103230.41;2092997;28;20044;-63
2022/11/12 04:56:18;;;;;;;0.00;0.00;;;;;;;17.63;67.89;103229.28;2093615;28;20109;-63
2022/11/12 04:57:38;;;;;;;0.00;0.00;;;;;;;17.63;67.67;103229.28;2093679;28;20045;-63
2022/11/12 04:59:00;;;;;;;0.00;0.00;;;;;;;17.62;67.69;103239.41;2092976;28;20045;-63
2022/11/12 05:00:21;;;;;;;0.00;0.00;;;;;;;17.63;67.70;103234.75;2092565;28;20095;-63
2022/11/12 05:01:43;;;;;;;0.00;0.00;;;;;;;17.63;67.66;103241.00;2093907;28;20063;-63
2022/11/12 05:03:04;;;;;;;0.00;0.00;;;;;;;17.63;67.59;103246.47;2094695;28;20059;-65
2022/11/12 05:04:26;;;;;;;0.00;0.00;;;;;;;17.63;67.72;103241.00;2093075;28;20051;-63
2022/11/12 05:05:47;;;;;;;0.00;0.00;;;;;;;17.63;67.91;103237.47;2093301;28;20049;-64
2022/11/12 05:07:08;;;;;;;0.00;0.00;;;;;;;17.64;67.65;103241.81;2093672;28;20056;-64
2022/11/12 05:08:30;;;;;;;0.00;0.00;;;;;;;17.63;67.57;103243.72;2091710;28;20170;-63
2022/11/12 05:09:51;;;;;;;0.00;0.00;;;;;;;17.64;67.52;103244.53;2093572;28;20047;-64
2022/11/12 05:11:12;;;;;;;0.00;0.00;;;;;;;17.64;67.74;103241.81;2088231;28;20045;-64
2022/11/12 05:12:33;;;;;;;0.00;0.00;;;;;;;17.63;67.52;103245.69;2093825;28;20086;-63
2022/11/12 05:13:53;;;;;;;0.00;0.00;;;;;;;17.64;67.57;103252.72;2094663;28;20071;-63
2022/11/12 05:15:15;;;;;;;0.00;0.00;;;;;;;17.63;67.70;103253.88;2092166;28;20064;-63
2022/11/12 05:16:41;;;;;;;0.00;0.00;;;;;;;17.63;67.62;103251.16;2093673;28;20088;-63
2022/11/12 05:18:04;;;;;;;0.00;0.00;;;;;;;17.63;67.74;103251.91;2092107;28;20048;-63
2022/11/12 05:19:25;;;;;;;0.00;0.00;;;;;;;17.63;67.70;103246.47;2091926;28;20048;-62
2022/11/12 05:20:45;;;;;;;0.00;0.00;;;;;;;17.64;67.67;103247.28;2092767;28;20060;-63
2022/11/12 05:22:07;;;;;;;0.00;0.00;;;;;;;17.63;67.64;103253.88;2092557;28;20059;-64
2022/11/12 05:23:41;;;;;;;0.00;0.00;;;;;;;17.61;67.53;103247.94;2086501;28;20049;-63
2022/11/12 05:25:02;;;;;;;0.00;0.00;;;;;;;17.62;67.56;103246.78;2087515;28;20052;-64
2022/11/12 05:26:22;;;;;;;0.00;0.00;;;;;;;17.60;67.67;103241.66;2093511;28;20058;-63
2022/11/12 05:27:43;;;;;;;0.00;0.00;;;;;;;17.62;67.37;103249.53;2094112;28;20051;-63
2022/11/12 05:29:04;;;;;;;0.00;0.00;;;;;;;17.63;67.94;103251.16;2092066;28;20128;-63
2022/11/12 05:30:29;;;;;;;0.00;0.00;;;;;;;17.63;67.78;103253.88;2092519;28;20057;-63
2022/11/12 05:31:49;;;;;;;0.00;0.00;;;;;;;17.61;67.47;103247.94;2091596;28;20047;-63
2022/11/12 05:33:12;;;;;;;0.00;0.00;;;;;;;17.64;67.76;103247.28;2091844;28;20050;-63
2022/11/12 05:34:34;;;;;;;0.00;0.00;;;;;;;17.63;67.68;103259.34;2093674;28;20121;-63
2022/11/12 05:35:54;;;;;;;0.00;0.00;;;;;;;17.64;67.62;103260.94;2092760;28;20056;-63
2022/11/12 05:37:16;;;;;;;0.00;0.00;;;;;;;17.63;67.65;103262.84;2093915;28;20045;-65
2022/11/12 05:38:37;;;;;;;0.00;0.00;;;;;;;17.63;67.36;103260.13;2091851;28;20109;-63
2022/11/12 05:39:59;;;;;;;0.00;0.00;;;;;;;17.64;67.50;103263.66;2092591;28;20916;-63
2022/11/12 05:41:19;;;;;;;0.00;0.00;;;;;;;17.63;67.63;103256.59;2090414;28;20077;-63
2022/11/12 05:42:40;;;;;;;0.00;0.00;;;;;;;17.62;67.77;103261.25;2091871;28;20071;-63
2022/11/12 05:44:01;;;;;;;0.00;0.00;;;;;;;17.63;67.51;103260.13;2092569;28;20789;-63
2022/11/12 05:45:22;;;;;;;;;;;;;;;17.45;67.83;103255.06;2094152;28;20102;-64
2022/11/12 05:46:42;;;;;;;0.00;0.00;;;;;;;17.56;67.78;103256.31;2093939;28;19928;-64
2022/11/12 05:48:03;;;;;;;0.00;0.00;;;;;;;17.58;67.59;103254.84;2093854;28;20063;-63
2022/11/12 05:49:25;;;;;;;0.00;0.00;;;;;;;17.60;67.78;103252.59;2090747;28;20102;-64
2022/11/12 05:50:49;;;;;;;0.00;0.00;;;;;;;17.61;67.53;103247.94;2091823;28;20047;-62
2022/11/12 05:52:30;;;;;;;0.00;0.00;;;;;;;17.58;67.76;103254.06;2093382;28;20385;-63
2022/11/12 05:53:51;;;;;;;0.00;0.00;;;;;;;17.59;67.66;103251.00;2093593;28;20083;-65
2022/11/12 05:55:12;;;;;;;0.00;0.00;;;;;;;17.59;67.62;103250.19;2093167;28;20055;-63
2022/11/12 05:56:33;;;;;;;0.00;0.00;;;;;;;17.60;67.40;103252.59;2093368;28;20553;-63
2022/11/12 05:57:54;;;;;;;0.00;0.00;;;;;;;17.60;67.51;103257.28;2090378;28;20152;-64
2022/11/12 05:59:15;;;;;;;0.00;0.00;;;;;;;17.61;67.59;103258.84;2091317;28;20139;-63
2022/11/12 06:00:40;;;;;;;0.00;0.00;;;;;;;17.50;67.43;103252.16;2091524;28;21028;-63
2022/11/12 06:02:00;;;;;;;0.00;0.00;;;;;;;17.60;67.52;103274.44;2093962;28;21162;-63
2022/11/12 06:03:23;;;;;;;0.00;0.00;;;;;;;17.60;67.62;103285.38;2093654;28;20117;-63
2022/11/12 06:04:44;;;;;;;0.00;0.00;;;;;;;17.61;67.38;103277.97;2084508;28;20450;-64
2022/11/12 06:06:05;;;;;;;0.00;0.00;;;;;;;17.61;67.70;103275.25;2088228;28;20184;-63
2022/11/12 06:07:27;;;;;;;0.00;0.00;;;;;;;17.60;67.46;103266.25;2091840;28;20056;-64
2022/11/12 06:08:48;;;;;;;0.00;0.00;;;;;;;17.61;67.45;103269.78;2090908;28;20485;-64
2022/11/12 06:10:09;;;;;;;0.00;0.00;;;;;;;17.60;67.39;103268.97;2092697;28;20106;-63
2022/11/12 06:11:30;;;;;;;0.00;0.00;;;;;;;17.60;67.55;103260.00;2091515;28;20048;-63
2022/11/12 06:12:50;;;;;;;0.00;0.00;;;;;;;17.60;67.44;103268.19;2091916;28;20114;-63
2022/11/12 06:14:12;;;;;;;0.00;0.00;;;;;;;17.59;67.33;103267.38;2093924;28;20068;-64
2022/11/12 06:15:33;;;;;;;0.00;0.00;;;;;;;17.59;67.45;103278.31;2090895;28;20114;-63
2022/11/12 06:16:59;;;;;;;0.00;0.00;;;;;;;17.60;67.46;103284.59;2092329;28;20047;-64
2022/11/12 06:18:20;;;;;;;0.00;0.00;;;;;;;17.60;67.47;103281.84;2092178;28;20050;-63
2022/11/12 06:19:42;;;;;;;0.00;0.00;;;;;;;17.60;67.45;103287.31;2091585;28;20055;-63
2022/11/12 06:21:26;;;;;;;0.00;0.00;;;;;;;17.61;67.48;103287.00;2092775;28;20047;-63
2022/11/12 06:22:47;;;;;;;0.00;0.00;;;;;;;17.58;67.48;103278.63;2094769;28;20045;-63
2022/11/12 06:24:09;;;;;;;0.00;0.00;;;;;;;17.57;67.48;103268.81;2091717;28;20070;-63
2022/11/12 06:25:29;;;;;;;0.00;0.00;;;;;;;17.59;67.31;103266.56;2092684;28;20044;-64
2022/11/12 06:26:50;;;;;;;0.00;0.00;;;;;;;17.58;67.11;103260.28;2093249;28;20075;-65
2022/11/12 06:28:11;;;;;;;0.00;0.00;;;;;;;17.59;67.46;103255.66;2093916;28;20101;-64
2022/11/12 06:29:32;;;;;;;;;;;;;;;17.40;67.58;103271.59;2091851;28;20500;-63
2022/11/12 06:30:52;;;;;;;0.00;0.00;;;;;;;17.52;67.68;103272.53;2092042;28;19924;-63
2022/11/12 06:32:14;;;;;;;0.00;0.00;;;;;;;17.55;67.46;103273.84;2093260;28;20044;-63
2022/11/12 06:33:34;;;;;;;0.00;0.00;;;;;;;17.56;67.34;103278.16;2092346;28;20136;-63
2022/11/12 06:34:55;;;;;;;0.00;0.00;;;;;;;17.56;67.44;103278.16;2092567;28;20051;-63
2022/11/12 06:36:20;;;;;;;0.00;0.00;;;;;;;17.57;67.41;103279.75;2089500;28;20049;-63
2022/11/12 06:37:40;;;;;;;0.00;0.00;;;;;;;17.56;67.51;103272.69;2086280;28;20140;-63
2022/11/12 06:39:01;;;;;;;0.00;0.00;;;;;;;17.56;67.42;103275.44;2081655;28;20051;-64
2022/11/12 06:40:22;;;;;;;0.00;0.00;;;;;;;17.55;67.44;103269.16;2093407;28;20142;-64
2022/11/12 06:41:43;;;;;;;0.00;0.00;;;;;;;17.55;67.34;103263.69;2093951;28;20045;-63
2022/11/12 06:43:03;;;;;;;0.00;0.00;;;;;;;17.57;67.55;103268.81;2094076;28;20060;-63
2022/11/12 06:44:24;;;;;;;0.00;0.00;;;;;;;17.56;67.29;103261.78;2094072;28;20086;-63